Time;durP1;ratioP1;P1;durP2;ratioP2;P2;SDS_P1;SDS_P2;PMS_P1;PMS_P2;Temp;Humidity;BMP_temperature;BMP_pressure;BME280_temperature;BME280_humidity;BME280_pressure;Samples;Min_cycle;Max_cycle;Signal;HPM_P1;HPM_P2
2022/01/05 00:00:31;;;;;;;0.52;0.50;;;5.30;99.90;;;;;;5017614;28;20465;-83
2022/01/05 00:02:57;;;;;;;0.70;0.60;;;5.40;99.90;;;;;;5035589;28;20036;-83
2022/01/05 00:05:23;;;;;;;0.73;0.60;;;5.00;99.90;;;;;;5017690;28;20029;-83
2022/01/05 00:07:48;;;;;;;1.80;0.70;;;5.10;99.90;;;;;;5035230;28;20038;-83
2022/01/05 00:10:14;;;;;;;1.23;0.77;;;5.20;99.90;;;;;;5035380;28;20033;-83
2022/01/05 00:12:40;;;;;;;0.73;0.70;;;5.10;99.90;;;;;;5035254;28;20021;-83
2022/01/05 00:15:07;;;;;;;1.20;0.93;;;5.20;99.90;;;;;;5017520;28;20037;-84
2022/01/05 00:17:32;;;;;;;0.57;0.55;;;5.10;99.90;;;;;;5017399;28;20026;-84
2022/01/05 00:19:59;;;;;;;1.00;0.60;;;5.20;99.90;;;;;;5018191;28;20075;-83
2022/01/05 00:22:24;;;;;;;1.10;0.45;;;5.00;99.90;;;;;;5035121;28;20021;-85
2022/01/05 00:24:50;;;;;;;1.23;0.73;;;4.90;99.90;;;;;;5017005;28;20370;-83
2022/01/05 00:27:17;;;;;;;0.40;0.40;;;5.10;99.90;;;;;;5035092;28;20017;-83
2022/01/05 00:29:43;;;;;;;3.58;0.80;;;4.80;99.90;;;;;;5034970;28;20405;-83
2022/01/05 00:32:09;;;;;;;1.15;0.43;;;5.10;99.90;;;;;;5017160;28;20017;-84
2022/01/05 00:34:36;;;;;;;1.58;0.63;;;5.20;99.90;;;;;;5034916;28;20030;-83
2022/01/05 00:37:02;;;;;;;0.77;0.47;;;4.90;99.90;;;;;;5034855;28;20370;-84
2022/01/05 00:39:27;;;;;;;0.60;0.55;;;4.70;99.90;;;;;;5017109;28;20443;-85
2022/01/05 00:41:53;;;;;;;0.82;0.70;;;4.90;99.90;;;;;;5016994;28;20128;-84
2022/01/05 00:44:19;;;;;;;0.80;0.50;;;5.00;99.90;;;;;;5034707;28;20033;-85
2022/01/05 00:46:45;;;;;;;0.63;0.50;;;4.90;99.90;;;;;;5016920;28;20022;-85
2022/01/05 00:49:12;;;;;;;1.15;0.50;;;4.90;99.90;;;;;;5016433;28;20033;-84
2022/01/05 00:51:38;;;;;;;1.30;0.50;;;5.10;99.90;;;;;;5034583;28;20496;-84
2022/01/05 00:54:04;;;;;;;2.30;0.50;;;5.10;99.90;;;;;;5016858;28;20492;-84
2022/01/05 00:56:30;;;;;;;0.93;0.50;;;5.10;99.90;;;;;;5016531;28;20376;-83
2022/01/05 00:58:56;;;;;;;1.85;0.60;;;4.90;99.90;;;;;;5016742;28;20030;-83
2022/01/05 01:01:22;;;;;;;0.70;0.63;;;5.00;99.90;;;;;;5016711;28;20025;-83
2022/01/05 01:03:48;;;;;;;0.65;0.60;;;5.00;99.90;;;;;;5016647;28;20504;-84
2022/01/05 01:06:14;;;;;;;1.02;0.57;;;5.10;99.90;;;;;;5016384;28;20037;-84
2022/01/05 01:08:40;;;;;;;0.85;0.63;;;5.00;99.90;;;;;;5034332;28;20380;-84
2022/01/05 01:11:06;;;;;;;0.40;0.35;;;5.10;99.90;;;;;;5016470;28;20091;-83
2022/01/05 01:13:32;;;;;;;0.50;0.40;;;5.20;99.90;;;;;;5016401;28;20033;-84
2022/01/05 01:15:57;;;;;;;1.30;0.70;;;5.00;99.90;;;;;;5034785;28;20031;-83
2022/01/05 01:18:23;;;;;;;0.47;0.47;;;5.10;99.90;;;;;;5034304;28;20041;-86
2022/01/05 01:20:50;;;;;;;0.38;0.32;;;4.90;99.90;;;;;;5016287;28;20528;-86
2022/01/05 01:23:22;;;;;;;0.38;0.30;;;4.90;99.90;;;;;;5016230;28;20021;-84
2022/01/05 01:25:52;;;;;;;1.38;0.65;;;4.90;99.90;;;;;;5016282;28;20515;-85
2022/01/05 01:28:18;;;;;;;0.32;0.32;;;5.00;99.90;;;;;;5016135;28;20018;-83
2022/01/05 01:30:44;;;;;;;0.90;0.60;;;5.10;99.90;;;;;;5033593;28;20022;-84
2022/01/05 01:33:10;;;;;;;0.63;0.40;;;5.10;99.90;;;;;;5033732;28;20032;-86
2022/01/05 01:35:35;;;;;;;0.52;0.40;;;5.00;99.90;;;;;;5016013;28;20025;-83
2022/01/05 01:38:01;;;;;;;0.60;0.50;;;5.10;99.90;;;;;;5016053;28;20481;-85
2022/01/05 01:40:27;;;;;;;0.60;0.40;;;5.20;99.90;;;;;;5033682;28;20025;-85
2022/01/05 01:42:53;;;;;;;0.40;0.40;;;5.40;99.90;;;;;;5015716;28;20030;-85
2022/01/05 01:45:19;;;;;;;1.23;0.35;;;5.30;99.90;;;;;;5015848;28;20029;-83
2022/01/05 01:47:46;;;;;;;0.80;0.40;;;5.30;99.90;;;;;;5033596;28;20389;-85
2022/01/05 01:50:12;;;;;;;0.65;0.52;;;5.30;99.90;;;;;;5015928;28;20028;-85
2022/01/05 01:52:38;;;;;;;0.45;0.40;;;5.20;99.90;;;;;;5033539;28;20032;-84
2022/01/05 01:55:05;;;;;;;0.40;0.40;;;5.20;99.90;;;;;;5015885;28;20018;-86
2022/01/05 01:57:34;;;;;;;0.50;0.40;;;5.00;99.90;;;;;;5016150;28;20029;-86
2022/01/05 02:00:00;;;;;;;0.50;0.40;;;5.00;99.90;;;;;;5014974;28;20021;-84
2022/01/05 02:02:26;;;;;;;0.40;0.40;;;5.00;99.90;;;;;;5015478;28;20033;-84
2022/01/05 02:04:52;;;;;;;0.30;0.30;;;4.90;99.90;;;;;;5015514;28;20403;-86
2022/01/05 02:07:18;;;;;;;0.30;0.30;;;5.00;99.90;;;;;;5012182;28;20053;-85
2022/01/05 02:09:44;;;;;;;1.63;0.40;;;5.00;99.90;;;;;;5012277;28;20018;-85
2022/01/05 02:12:11;;;;;;;1.33;0.50;;;5.10;99.90;;;;;;5012365;28;20040;-86
2022/01/05 02:14:36;;;;;;;0.80;0.50;;;5.10;99.90;;;;;;5012233;28;20026;-85
2022/01/05 02:17:08;;;;;;;1.10;0.50;;;5.30;99.90;;;;;;5012371;28;20398;-84
2022/01/05 02:19:34;;;;;;;0.93;0.40;;;5.10;99.90;;;;;;5013932;28;20030;-86
2022/01/05 02:21:59;;;;;;;0.30;0.30;;;5.20;99.90;;;;;;5012150;28;20121;-85
2022/01/05 02:24:25;;;;;;;1.80;0.40;;;5.30;99.90;;;;;;5012020;28;20168;-86
2022/01/05 02:26:51;;;;;;;1.20;0.50;;;5.40;99.90;;;;;;5012201;28;20018;-86
2022/01/05 02:29:16;;;;;;;0.45;0.40;;;5.30;99.90;;;;;;5012217;28;20029;-86
2022/01/05 02:31:42;;;;;;;0.40;0.40;;;5.20;99.90;;;;;;5012319;28;20050;-83
2022/01/05 02:34:08;;;;;;;0.32;0.30;;;5.20;99.90;;;;;;5012126;28;20514;-85
2022/01/05 02:36:34;;;;;;;0.30;0.30;;;5.20;99.90;;;;;;5011858;28;20033;-85
2022/01/05 02:38:59;;;;;;;1.17;0.50;;;5.00;99.90;;;;;;5013460;28;20022;-83
2022/01/05 02:41:25;;;;;;;0.20;0.20;;;5.20;99.90;;;;;;5013187;28;20022;-81
2022/01/05 02:43:51;;;;;;;0.35;0.35;;;5.30;99.90;;;;;;5011868;28;20022;-86
2022/01/05 02:46:22;;;;;;;0.93;0.47;;;5.20;99.90;;;;;;5013517;28;20049;-83
2022/01/05 02:48:51;;;;;;;0.30;0.30;;;5.10;99.90;;;;;;5013297;28;20026;-86
2022/01/05 02:51:17;;;;;;;0.50;0.40;;;5.00;99.90;;;;;;5013524;28;20037;-86
2022/01/05 02:53:43;;;;;;;1.92;0.50;;;5.20;99.90;;;;;;5013243;28;20030;-83
2022/01/05 02:56:09;;;;;;;0.40;0.40;;;5.30;99.90;;;;;;5013208;28;20057;-84
2022/01/05 02:58:35;;;;;;;1.48;0.50;;;5.30;99.90;;;;;;5013302;28;20034;-85
2022/01/05 03:01:02;;;;;;;0.30;0.30;;;5.20;99.90;;;;;;5011925;28;20042;-86
2022/01/05 03:03:27;;;;;;;0.40;0.40;;;5.20;99.90;;;;;;5011742;28;20056;-84
2022/01/05 03:05:53;;;;;;;0.77;0.35;;;5.10;99.90;;;;;;5011794;28;20460;-83
2022/01/05 03:08:19;;;;;;;1.15;0.40;;;5.20;99.90;;;;;;5011631;28;20022;-85
2022/01/05 03:10:45;;;;;;;0.40;0.40;;;5.00;99.90;;;;;;5013359;28;20022;-85
2022/01/05 03:13:10;;;;;;;0.60;0.50;;;4.90;99.90;;;;;;5016855;28;20053;-85
2022/01/05 03:15:36;;;;;;;1.02;0.50;;;5.10;99.90;;;;;;5016929;28;20056;-84
2022/01/05 03:18:04;;;;;;;0.40;0.40;;;5.00;99.90;;;;;;5015357;28;20029;-84
2022/01/05 03:20:30;;;;;;;0.52;0.50;;;5.00;99.90;;;;;;5015615;28;20029;-85
2022/01/05 03:22:57;;;;;;;0.50;0.50;;;5.20;99.90;;;;;;5015384;28;20049;-86
2022/01/05 03:25:23;;;;;;;0.40;0.40;;;5.20;99.90;;;;;;5015515;28;20133;-85
2022/01/05 03:27:51;;;;;;;0.47;0.47;;;5.20;99.90;;;;;;5015564;28;20026;-84
2022/01/05 03:30:20;;;;;;;0.40;0.38;;;5.10;99.90;;;;;;5016549;28;20022;-86
2022/01/05 03:35:18;;;;;;;0.43;0.30;;;5.20;99.90;;;;;;5016314;28;20513;-84
2022/01/05 03:37:44;;;;;;;0.30;0.30;;;5.10;99.90;;;;;;5016272;28;20018;-84
2022/01/05 03:40:10;;;;;;;0.40;0.40;;;4.90;99.90;;;;;;5016059;28;20022;-85
2022/01/05 03:42:35;;;;;;;0.55;0.40;;;4.90;99.90;;;;;;5014667;28;20029;-83
2022/01/05 03:45:01;;;;;;;0.30;0.30;;;4.90;99.90;;;;;;5014680;28;20442;-84
2022/01/05 03:47:27;;;;;;;1.45;0.30;;;4.80;99.90;;;;;;5016344;28;20049;-85
2022/01/05 03:49:53;;;;;;;0.40;0.40;;;4.90;99.90;;;;;;5016007;28;20060;-86
2022/01/05 03:52:19;;;;;;;0.50;0.30;;;5.00;99.90;;;;;;5016270;28;20378;-85
2022/01/05 03:54:45;;;;;;;0.82;0.40;;;4.90;99.90;;;;;;5014658;28;20030;-85
2022/01/05 03:57:10;;;;;;;0.38;0.38;;;4.80;99.90;;;;;;5014605;28;20505;-85
2022/01/05 03:59:36;;;;;;;0.22;0.22;;;5.10;99.90;;;;;;5014638;28;20026;-85
2022/01/05 04:02:02;;;;;;;0.30;0.30;;;5.00;99.90;;;;;;5014492;28;20497;-86
2022/01/05 04:04:28;;;;;;;1.05;0.50;;;4.90;99.90;;;;;;5015919;28;20137;-85
2022/01/05 04:06:53;;;;;;;0.30;0.30;;;4.90;99.90;;;;;;5027467;28;20167;-85
2022/01/05 04:09:19;;;;;;;0.40;0.40;;;4.90;99.90;;;;;;5035423;28;20478;-83
2022/01/05 04:11:45;;;;;;;0.77;0.57;;;4.80;99.90;;;;;;5017547;28;20026;-85
2022/01/05 04:14:12;;;;;;;0.40;0.40;;;4.90;99.90;;;;;;5017368;28;20021;-86
2022/01/05 04:16:38;;;;;;;0.30;0.28;;;4.90;99.90;;;;;;5035291;28;20529;-85
2022/01/05 04:19:03;;;;;;;1.02;0.40;;;4.90;99.90;;;;;;5017521;28;20060;-86
2022/01/05 04:21:29;;;;;;;0.50;0.50;;;4.70;99.90;;;;;;5035401;28;20040;-86
2022/01/05 04:23:55;;;;;;;0.40;0.40;;;4.70;99.90;;;;;;5016469;28;20049;-86
2022/01/05 04:26:21;;;;;;;0.40;0.40;;;4.70;99.90;;;;;;5017559;28;20022;-85
2022/01/05 04:28:46;;;;;;;0.50;0.45;;;4.60;99.90;;;;;;5035059;28;20067;-85
2022/01/05 04:31:12;;;;;;;4.63;0.45;;;4.70;99.90;;;;;;5017269;28;20072;-83
2022/01/05 04:33:38;;;;;;;0.40;0.40;;;4.80;99.90;;;;;;5017048;28;20029;-86
2022/01/05 04:36:04;;;;;;;0.40;0.40;;;4.70;99.90;;;;;;5017269;28;20401;-85
2022/01/05 04:38:29;;;;;;;1.60;0.50;;;4.70;99.90;;;;;;5017037;28;20100;-86
2022/01/05 04:40:55;;;;;;;0.55;0.50;;;4.70;99.90;;;;;;5017187;28;20025;-86
2022/01/05 04:43:21;;;;;;;0.55;0.43;;;4.90;99.90;;;;;;5016995;28;20103;-86
2022/01/05 04:45:49;;;;;;;1.45;0.50;;;5.00;99.90;;;;;;5016728;28;20108;-86
2022/01/05 04:48:14;;;;;;;0.40;0.40;;;5.10;99.90;;;;;;5034919;28;20113;-87
2022/01/05 04:50:40;;;;;;;0.45;0.40;;;5.10;99.90;;;;;;5016901;28;20060;-87
2022/01/05 04:53:06;;;;;;;0.73;0.52;;;5.30;99.90;;;;;;5016910;28;20030;-86
2022/01/05 04:55:32;;;;;;;0.68;0.57;;;5.30;99.90;;;;;;5016908;28;20472;-86
2022/01/05 04:57:57;;;;;;;0.88;0.40;;;5.30;99.90;;;;;;5017102;28;20027;-87
2022/01/05 05:00:23;;;;;;;0.88;0.52;;;5.40;99.90;;;;;;5016743;28;20037;-86
2022/01/05 05:02:49;;;;;;;0.40;0.40;;;5.30;99.90;;;;;;5034415;28;20025;-86
2022/01/05 05:05:15;;;;;;;0.30;0.30;;;5.40;99.90;;;;;;5016521;28;20113;-86
2022/01/05 05:07:40;;;;;;;0.45;0.40;;;5.40;99.90;;;;;;5016597;28;20076;-86
2022/01/05 05:10:06;;;;;;;0.98;0.70;;;5.50;99.90;;;;;;5016991;28;20025;-86
2022/01/05 05:12:32;;;;;;;2.50;0.50;;;5.40;99.90;;;;;;5016621;28;20512;-86
2022/01/05 05:14:58;;;;;;;1.35;0.50;;;5.40;99.90;;;;;;5016480;28;20025;-85
2022/01/05 05:17:24;;;;;;;0.90;0.50;;;5.30;99.90;;;;;;5016178;28;20034;-86
2022/01/05 05:19:49;;;;;;;3.53;0.50;;;5.10;99.90;;;;;;5016274;28;20030;-85
2022/01/05 05:22:15;;;;;;;1.23;0.57;;;5.10;99.90;;;;;;5016254;28;20029;-86
2022/01/05 05:24:41;;;;;;;0.40;0.40;;;5.20;99.90;;;;;;5016428;28;20112;-86
2022/01/05 05:27:07;;;;;;;1.25;0.65;;;5.10;99.90;;;;;;5033883;28;20018;-85
2022/01/05 05:29:33;;;;;;;0.90;0.55;;;5.10;99.90;;;;;;5016322;28;20022;-85
2022/01/05 05:31:59;;;;;;;0.40;0.40;;;5.00;99.90;;;;;;5034214;28;20024;-85
2022/01/05 05:34:25;;;;;;;1.70;0.50;;;4.90;99.90;;;;;;5033840;28;20033;-86
2022/01/05 05:36:50;;;;;;;0.90;0.60;;;5.00;99.90;;;;;;5034102;28;20021;-86
2022/01/05 05:39:16;;;;;;;1.30;0.50;;;5.00;99.90;;;;;;5034460;28;20048;-86
2022/01/05 05:41:42;;;;;;;1.40;0.60;;;4.90;99.90;;;;;;5015926;28;20026;-86
2022/01/05 05:44:07;;;;;;;1.05;0.75;;;5.00;99.90;;;;;;5033858;28;20025;-86
2022/01/05 05:46:34;;;;;;;0.65;0.50;;;5.00;99.90;;;;;;5015901;28;20075;-87
2022/01/05 05:49:00;;;;;;;1.20;0.60;;;5.00;99.90;;;;;;5033620;28;20524;-86
2022/01/05 05:51:26;;;;;;;1.80;0.52;;;5.00;99.90;;;;;;5015793;28;20029;-87
2022/01/05 05:53:52;;;;;;;0.68;0.50;;;5.00;99.90;;;;;;5015830;28;20037;-87
2022/01/05 05:56:17;;;;;;;0.57;0.43;;;5.00;99.90;;;;;;5015754;28;20025;-87
2022/01/05 05:58:43;;;;;;;0.60;0.60;;;5.00;99.90;;;;;;5015716;28;20033;-87
2022/01/05 06:01:09;;;;;;;1.35;0.50;;;4.70;99.90;;;;;;5015783;28;20030;-88
2022/01/05 06:03:35;;;;;;;0.68;0.50;;;4.70;99.90;;;;;;5015655;28;20438;-87
2022/01/05 06:06:00;;;;;;;0.57;0.40;;;4.50;99.90;;;;;;5033308;28;20076;-88
2022/01/05 06:08:26;;;;;;;2.75;0.50;;;4.60;99.90;;;;;;5015841;28;20044;-89
2022/01/05 06:10:52;;;;;;;1.10;0.57;;;4.70;99.90;;;;;;5015534;28;20017;-88
2022/01/05 06:13:18;;;;;;;0.70;0.50;;;4.90;99.90;;;;;;5033572;28;20109;-89
2022/01/05 06:15:43;;;;;;;0.95;0.50;;;4.90;99.90;;;;;;5015781;28;20029;-88
2022/01/05 06:18:09;;;;;;;0.32;0.30;;;4.80;99.90;;;;;;5033236;28;20477;-87
2022/01/05 06:20:35;;;;;;;0.93;0.55;;;4.80;99.90;;;;;;5015543;28;20064;-86
2022/01/05 06:23:00;;;;;;;0.90;0.40;;;4.90;99.90;;;;;;5015627;28;20032;-87
2022/01/05 06:25:26;;;;;;;1.00;0.40;;;4.80;99.90;;;;;;5015639;28;20021;-86
2022/01/05 06:27:52;;;;;;;0.88;0.45;;;5.10;99.90;;;;;;5015659;28;20021;-86
2022/01/05 06:30:18;;;;;;;1.80;0.50;;;5.10;99.90;;;;;;5015648;28;20018;-86
2022/01/05 06:32:46;;;;;;;1.13;0.47;;;4.80;99.90;;;;;;5015432;28;20032;-88
2022/01/05 06:35:13;;;;;;;0.57;0.43;;;5.00;99.90;;;;;;5015586;28;20500;-86
2022/01/05 06:37:39;;;;;;;0.68;0.50;;;5.10;99.90;;;;;;5033539;28;20017;-88
2022/01/05 06:40:06;;;;;;;0.65;0.40;;;4.90;99.90;;;;;;5015783;28;20044;-88
2022/01/05 06:42:32;;;;;;;3.03;0.95;;;4.90;99.90;;;;;;5016505;28;20377;-89
2022/01/05 06:44:58;;;;;;;1.10;0.73;;;4.80;99.90;;;;;;5015442;28;20022;-88
2022/01/05 06:47:23;;;;;;;1.45;0.85;;;4.90;99.90;;;;;;5018412;28;20112;-88
2022/01/05 06:49:49;;;;;;;1.27;0.77;;;5.00;99.90;;;;;;5019282;28;20389;-88
2022/01/05 06:52:15;;;;;;;1.05;0.77;;;5.10;99.90;;;;;;5036739;28;20070;-88
2022/01/05 06:54:41;;;;;;;0.65;0.50;;;5.10;99.90;;;;;;5019149;28;20041;-87
2022/01/05 06:57:07;;;;;;;1.42;0.55;;;5.10;99.90;;;;;;5037164;28;20021;-86
2022/01/05 06:59:33;;;;;;;1.10;0.65;;;4.90;99.90;;;;;;5019197;28;20032;-87
2022/01/05 07:01:58;;;;;;;0.75;0.50;;;4.50;99.90;;;;;;5018988;28;20456;-87
2022/01/05 07:04:24;;;;;;;1.20;0.60;;;4.40;99.90;;;;;;5018926;28;20389;-87
2022/01/05 07:06:50;;;;;;;1.67;0.70;;;4.40;99.90;;;;;;5018684;28;20092;-87
2022/01/05 07:09:16;;;;;;;1.15;0.60;;;4.60;99.90;;;;;;5018802;28;20025;-86
2022/01/05 07:11:41;;;;;;;1.65;0.82;;;4.40;99.90;;;;;;5018868;28;20032;-86
2022/01/05 07:14:07;;;;;;;1.38;0.75;;;4.50;99.90;;;;;;5036712;28;20048;-86
2022/01/05 07:16:33;;;;;;;3.70;0.98;;;4.30;99.90;;;;;;5018792;28;20025;-87
2022/01/05 07:18:58;;;;;;;1.20;0.80;;;4.40;99.90;;;;;;5018663;28;20025;-86
2022/01/05 07:21:24;;;;;;;1.08;0.70;;;4.30;99.90;;;;;;5018744;28;20032;-86
2022/01/05 07:23:50;;;;;;;2.70;0.98;;;4.20;99.90;;;;;;5018767;28;20028;-86
2022/01/05 07:26:16;;;;;;;2.78;1.65;;;4.10;99.90;;;;;;5018576;28;20029;-86
2022/01/05 07:28:41;;;;;;;2.88;1.15;;;4.00;99.90;;;;;;5036749;28;20030;-87
2022/01/05 07:31:07;;;;;;;5.95;1.30;;;4.00;99.90;;;;;;5018447;28;20079;-86
2022/01/05 07:33:33;;;;;;;1.95;1.17;;;4.00;99.90;;;;;;5018631;28;20026;-87
2022/01/05 07:35:58;;;;;;;3.58;1.30;;;4.00;99.90;;;;;;5018342;28;20396;-86
2022/01/05 07:38:24;;;;;;;2.45;1.80;;;4.10;99.90;;;;;;5036679;28;20040;-86
2022/01/05 07:40:50;;;;;;;4.28;1.50;;;4.20;99.90;;;;;;5018607;28;20512;-86
2022/01/05 07:43:15;;;;;;;3.17;1.30;;;4.10;99.90;;;;;;5036904;28;20116;-86
2022/01/05 07:45:41;;;;;;;3.88;1.50;;;4.00;99.90;;;;;;5018555;28;20053;-86
2022/01/05 07:48:07;;;;;;;5.93;1.98;;;3.70;99.90;;;;;;5018344;28;20121;-86
2022/01/05 07:50:33;;;;;;;5.22;2.60;;;3.70;99.90;;;;;;5018021;28;20108;-85
2022/01/05 07:53:04;;;;;;;5.57;1.42;;;3.80;99.90;;;;;;5018093;28;20052;-85
2022/01/05 07:55:30;;;;;;;3.40;1.58;;;3.80;99.90;;;;;;5017963;28;20048;-85
2022/01/05 07:57:57;;;;;;;6.00;1.95;;;3.90;99.90;;;;;;5034149;28;20021;-85
2022/01/05 08:00:23;;;;;;;2.88;1.50;;;3.90;99.90;;;;;;5017854;28;20112;-86
2022/01/05 08:02:49;;;;;;;7.13;2.50;;;3.90;99.90;;;;;;5018315;28;20116;-85
2022/01/05 08:05:15;;;;;;;8.32;2.40;;;3.90;99.90;;;;;;5035605;28;20017;-85
2022/01/05 08:07:41;;;;;;;2.70;1.30;;;4.10;99.90;;;;;;5017986;28;20062;-86
2022/01/05 08:10:07;;;;;;;5.75;1.95;;;4.00;99.90;;;;;;5017787;28;20027;-86
2022/01/05 08:12:32;;;;;;;6.00;1.50;;;3.90;99.90;;;;;;5017803;28;20021;-85
2022/01/05 08:14:58;;;;;;;4.22;1.50;;;4.00;99.90;;;;;;5017504;28;20036;-86
2022/01/05 08:17:24;;;;;;;10.77;4.38;;;4.10;99.90;;;;;;5017736;28;20026;-85
2022/01/05 08:19:49;;;;;;;4.38;1.63;;;4.00;99.90;;;;;;5035274;28;20101;-86
2022/01/05 08:22:15;;;;;;;5.80;1.63;;;4.00;99.90;;;;;;5017609;28;20064;-85
2022/01/05 08:24:41;;;;;;;8.73;1.77;;;4.20;99.90;;;;;;5017672;28;20060;-86
2022/01/05 08:27:07;;;;;;;4.43;1.60;;;3.80;99.90;;;;;;5035093;28;20021;-87
2022/01/05 08:29:32;;;;;;;5.85;1.55;;;3.60;99.90;;;;;;5017345;28;20473;-86
2022/01/05 08:32:02;;;;;;;4.35;1.77;;;3.80;99.90;;;;;;5035636;28;20438;-84
2022/01/05 08:34:32;;;;;;;5.20;1.90;;;3.80;99.90;;;;;;5017240;28;20515;-85
2022/01/05 08:36:59;;;;;;;5.38;1.88;;;3.90;99.90;;;;;;5035521;28;20029;-85
2022/01/05 08:39:25;;;;;;;6.45;2.20;;;4.00;99.90;;;;;;5017231;28;20060;-84
2022/01/05 08:41:52;;;;;;;4.82;2.33;;;4.00;99.90;;;;;;5017286;28;20025;-85
2022/01/05 08:44:18;;;;;;;8.82;1.90;;;4.00;99.90;;;;;;5016955;28;20025;-85
2022/01/05 08:46:43;;;;;;;3.40;1.50;;;3.80;99.90;;;;;;5016993;28;20091;-83
2022/01/05 08:49:10;;;;;;;6.10;2.10;;;3.80;99.90;;;;;;5016945;28;20028;-84
2022/01/05 08:51:38;;;;;;;6.13;2.10;;;3.90;99.90;;;;;;5016961;28;20048;-84
2022/01/05 08:54:04;;;;;;;6.50;2.10;;;3.90;99.90;;;;;;5016820;28;20025;-84
2022/01/05 08:56:30;;;;;;;7.57;2.03;;;3.80;99.90;;;;;;5016839;28;20025;-84
2022/01/05 08:58:56;;;;;;;7.03;2.10;;;4.10;99.90;;;;;;5034623;28;20342;-84
2022/01/05 09:01:23;;;;;;;4.15;1.48;;;4.20;99.90;;;;;;5034252;28;20025;-85
2022/01/05 09:03:52;;;;;;;5.75;1.90;;;4.60;99.90;;;;;;5016423;28;20036;-85
2022/01/05 09:06:18;;;;;;;4.88;1.98;;;4.90;99.90;;;;;;5013131;28;20042;-85
2022/01/05 09:08:44;;;;;;;7.68;2.08;;;5.00;99.90;;;;;;5014456;28;20080;-85
2022/01/05 09:11:10;;;;;;;8.27;2.92;;;4.80;99.90;;;;;;5014903;28;20029;-86
2022/01/05 09:13:36;;;;;;;5.15;1.92;;;4.50;99.90;;;;;;5014665;28;20053;-86
2022/01/05 09:16:03;;;;;;;7.53;2.22;;;4.50;99.90;;;;;;5013292;28;20056;-84
2022/01/05 09:18:29;;;;;;;6.65;2.67;;;4.50;99.90;;;;;;5013255;28;20113;-85
2022/01/05 09:20:55;;;;;;;9.38;2.78;;;4.40;99.90;;;;;;5014333;28;20051;-85
2022/01/05 09:23:20;;;;;;;9.20;2.50;;;4.40;99.90;;;;;;5014508;28;20474;-86
2022/01/05 09:25:46;;;;;;;8.63;2.00;;;4.40;99.90;;;;;;5013407;28;20386;-85
2022/01/05 09:28:12;;;;;;;8.27;1.77;;;4.60;99.90;;;;;;5013199;28;20509;-84
2022/01/05 09:30:38;;;;;;;6.93;1.73;;;5.00;99.90;;;;;;5013264;28;20045;-85
2022/01/05 09:33:04;;;;;;;8.00;1.50;;;5.30;99.90;;;;;;5013160;28;20033;-85
2022/01/05 09:35:30;;;;;;;8.32;2.15;;;5.50;99.90;;;;;;5013942;28;20104;-85
2022/01/05 09:43:13;;;;;;;9.77;2.28;;;5.70;99.90;;;;;;5014820;28;20168;-86
2022/01/05 09:45:52;;;;;;;5.88;1.67;;;5.80;99.90;;;;;;5014603;28;20439;-84
2022/01/05 09:48:37;;;;;;;8.68;1.80;;;5.60;99.90;;;;;;5012905;28;20493;-85
2022/01/05 09:51:06;;;;;;;8.18;1.90;;;5.40;99.90;;;;;;5014661;28;20363;-86
2022/01/05 09:53:33;;;;;;;5.22;1.73;;;5.10;99.90;;;;;;5014030;28;20061;-85
2022/01/05 09:56:00;;;;;;;12.45;2.63;;;4.70;99.90;;;;;;5012804;28;20418;-84
2022/01/05 09:58:28;;;;;;;10.40;2.00;;;4.50;99.90;;;;;;5013068;28;20030;-84
2022/01/05 10:00:53;;;;;;;9.48;2.90;;;4.80;99.90;;;;;;5014594;28;20030;-82
2022/01/05 10:03:21;;;;;;;9.02;1.70;;;4.90;99.90;;;;;;5012554;28;20037;-84
2022/01/05 10:05:47;;;;;;;11.27;2.72;;;5.10;99.90;;;;;;5015356;28;20057;-84
2022/01/05 10:08:12;;;;;;;18.45;2.90;;;4.90;99.90;;;;;;5033743;28;20021;-86
2022/01/05 10:10:40;;;;;;;10.20;2.28;;;4.70;99.90;;;;;;5015920;28;20071;-84
2022/01/05 10:13:06;;;;;;;8.80;2.33;;;4.60;99.90;;;;;;5015843;28;20022;-86
2022/01/05 10:15:32;;;;;;;8.95;2.05;;;4.50;99.90;;;;;;5015718;28;20028;-86
2022/01/05 10:18:18;;;;;;;9.45;1.98;;;4.60;99.90;;;;;;5015669;28;20366;-83
2022/01/05 10:21:05;;;;;;;13.48;2.42;;;4.40;99.90;;;;;;5014886;28;20036;-84
2022/01/05 10:23:36;;;;;;;8.15;2.10;;;4.90;99.90;;;;;;5033508;28;20021;-85
2022/01/05 10:26:23;;;;;;;12.60;2.30;;;5.30;99.90;;;;;;5015914;28;20045;-84
2022/01/05 10:28:52;;;;;;;13.82;2.65;;;5.40;99.90;;;;;;5015713;28;20036;-84
2022/01/05 10:31:25;;;;;;;13.00;1.98;;;5.50;99.90;;;;;;5015539;28;20389;-84
2022/01/05 10:33:51;;;;;;;12.90;2.30;;;5.20;99.90;;;;;;5033488;28;20041;-85
2022/01/05 10:36:18;;;;;;;17.80;2.58;;;4.70;99.90;;;;;;5015306;28;20021;-83
2022/01/05 10:38:52;;;;;;;11.57;2.22;;;4.70;99.90;;;;;;5032868;28;20033;-84
2022/01/05 10:41:20;;;;;;;9.73;2.10;;;4.60;99.90;;;;;;5015106;28;20030;-83
2022/01/05 10:44:15;;;;;;;10.50;2.80;;;4.90;99.90;;;;;;5033001;28;20061;-83
2022/01/05 10:47:01;;;;;;;8.57;2.40;;;5.30;99.90;;;;;;5015077;28;20021;-82
2022/01/05 10:49:37;;;;;;;7.90;1.95;;;5.30;99.90;;;;;;5015312;28;20040;-83
2022/01/05 10:52:28;;;;;;;10.60;2.05;;;5.70;99.90;;;;;;5015175;28;20025;-82
2022/01/05 10:55:15;;;;;;;10.50;2.10;;;6.20;99.90;;;;;;5015309;28;20469;-84
2022/01/05 10:58:06;;;;;;;11.27;2.00;;;6.50;99.90;;;;;;5014838;28;20048;-83
2022/01/05 11:00:53;;;;;;;13.77;2.25;;;6.70;99.90;;;;;;5015294;28;20388;-83
2022/01/05 11:03:30;;;;;;;8.73;2.30;;;6.30;99.90;;;;;;5032715;28;20021;-84
2022/01/05 11:06:11;;;;;;;8.52;2.10;;;5.80;99.90;;;;;;5014780;28;20052;-84
2022/01/05 11:09:04;;;;;;;9.10;1.88;;;6.00;99.90;;;;;;5015397;28;20028;-83
2022/01/05 11:11:42;;;;;;;10.80;2.20;;;5.90;99.90;;;;;;5012173;28;20171;-83
2022/01/05 11:14:13;;;;;;;11.93;2.53;;;6.00;99.90;;;;;;5015175;28;20022;-84
2022/01/05 11:16:44;;;;;;;8.68;2.05;;;6.80;99.90;;;;;;5015112;28;20026;-83
2022/01/05 11:19:29;;;;;;;6.07;2.00;;;6.60;99.90;;;;;;5033185;28;20144;-84
2022/01/05 11:22:21;;;;;;;13.25;2.90;;;6.70;99.90;;;;;;5015076;28;20573;-82
2022/01/05 11:24:51;;;;;;;13.15;3.03;;;6.70;99.90;;;;;;5012067;28;20040;-84
2022/01/05 11:27:28;;;;;;;10.23;2.40;;;7.10;99.90;;;;;;5014883;28;20465;-85
2022/01/05 11:29:54;;;;;;;10.65;2.15;;;7.20;99.90;;;;;;5032605;28;20056;-84
2022/01/05 11:32:25;;;;;;;9.80;1.90;;;6.90;99.90;;;;;;5015937;28;20025;-85
2022/01/05 11:34:51;;;;;;;9.52;2.10;;;7.00;99.90;;;;;;5018406;28;20025;-85
2022/01/05 11:37:18;;;;;;;9.45;2.33;;;6.80;99.90;;;;;;5018273;28;20063;-84
2022/01/05 11:39:46;;;;;;;8.40;1.83;;;6.90;99.90;;;;;;5018321;28;20040;-85
2022/01/05 11:42:15;;;;;;;6.15;1.80;;;6.70;99.90;;;;;;5018163;28;20021;-84
2022/01/05 11:44:45;;;;;;;10.38;2.08;;;6.40;99.90;;;;;;5017893;28;20397;-83
2022/01/05 11:47:23;;;;;;;10.07;2.47;;;6.40;99.90;;;;;;5017957;28;20025;-86
2022/01/05 11:49:50;;;;;;;7.80;1.58;;;7.10;99.90;;;;;;5018105;28;20500;-85
2022/01/05 11:52:16;;;;;;;8.32;1.58;;;7.70;99.90;;;;;;5035837;28;20025;-85
2022/01/05 11:55:04;;;;;;;10.40;2.03;;;7.80;99.90;;;;;;5018042;28;20132;-83
2022/01/05 11:57:30;;;;;;;6.43;1.45;;;7.60;99.90;;;;;;5035870;28;20382;-84
2022/01/05 12:00:18;;;;;;;12.50;2.30;;;8.10;99.90;;;;;;5018049;28;20155;-83
2022/01/05 12:02:44;;;;;;;9.90;1.92;;;7.80;99.90;;;;;;5035997;28;20379;-84
2022/01/05 12:05:10;;;;;;;11.25;2.22;;;8.20;99.90;;;;;;5035597;28;20583;-85
2022/01/05 12:07:47;;;;;;;12.25;2.15;;;8.50;99.90;;;;;;5017557;28;20045;-85
2022/01/05 12:10:21;;;;;;;10.30;2.38;;;8.30;99.90;;;;;;5017852;28;20076;-84
2022/01/05 12:13:04;;;;;;;9.68;2.45;;;8.00;99.90;;;;;;5017627;28;20472;-84
2022/01/05 12:15:40;;;;;;;5.43;1.77;;;8.00;99.90;;;;;;5017653;28;20056;-85
2022/01/05 12:18:06;;;;;;;8.50;1.90;;;9.00;99.90;;;;;;5017827;28;20491;-84
2022/01/05 12:20:37;;;;;;;7.25;1.77;;;9.00;99.90;;;;;;5017433;28;20112;-83
2022/01/05 12:23:27;;;;;;;8.98;1.80;;;9.20;99.90;;;;;;5017286;28;20025;-83
2022/01/05 12:26:05;;;;;;;8.80;2.22;;;9.50;99.90;;;;;;5017417;28;20025;-84
2022/01/05 12:28:33;;;;;;;9.95;1.95;;;10.00;99.90;;;;;;5035263;28;20111;-83
2022/01/05 12:30:59;;;;;;;7.70;1.88;;;10.30;99.90;;;;;;5017379;28;20023;-85
2022/01/05 12:33:26;;;;;;;6.50;1.77;;;10.50;99.90;;;;;;5017298;28;20112;-84
2022/01/05 12:35:59;;;;;;;8.35;2.17;;;10.10;99.90;;;;;;5017114;28;20477;-84
2022/01/05 12:38:35;;;;;;;8.98;2.75;;;11.10;99.90;;;;;;5017123;28;20037;-84
2022/01/05 12:41:28;;;;;;;9.90;2.20;;;11.90;99.90;;;;;;5017119;28;20428;-85
2022/01/05 12:43:56;;;;;;;7.65;1.63;;;12.30;99.90;;;;;;5016081;28;20030;-84
2022/01/05 12:46:49;;;;;;;9.20;1.60;;;12.60;99.90;;;;;;5016860;28;20025;-85
2022/01/05 12:49:25;;;;;;;7.88;1.70;;;12.30;99.90;;;;;;5014243;28;20026;-86
2022/01/05 12:52:06;;;;;;;7.00;1.80;;;10.70;99.90;;;;;;5016890;28;20030;-84
2022/01/05 12:54:48;;;;;;;7.50;1.58;;;11.00;99.90;;;;;;5016843;28;20030;-84
2022/01/05 12:57:21;;;;;;;8.18;2.10;;;10.30;99.90;;;;;;5016605;28;20025;-85
2022/01/05 12:59:50;;;;;;;9.00;2.00;;;10.90;99.90;;;;;;5016792;28;20033;-85
2022/01/05 13:02:27;;;;;;;12.13;1.83;;;11.60;99.90;;;;;;5016641;28;20080;-84
2022/01/05 13:04:55;;;;;;;7.47;1.85;;;10.90;99.90;;;;;;5016417;28;20026;-84
2022/01/05 13:07:23;;;;;;;6.28;1.90;;;10.70;99.90;;;;;;5013051;28;20046;-85